sensor_id;sensor_type;location;lat;lon;timestamp;P1;durP1;ratioP1;P2;durP2;ratioP2
8044;SDS011;4065;48.754;9.982;2023-07-20T00:00:57;3.38;;;2.50;;
8044;SDS011;4065;48.754;9.982;2023-07-20T00:04:19;3.97;;;2.42;;
8044;SDS011;4065;48.754;9.982;2023-07-20T00:07:42;4.40;;;2.30;;
8044;SDS011;4065;48.754;9.982;2023-07-20T00:11:04;3.92;;;2.58;;
8044;SDS011;4065;48.754;9.982;2023-07-20T00:14:26;3.15;;;2.40;;
8044;SDS011;4065;48.754;9.982;2023-07-20T00:17:51;3.70;;;2.40;;
8044;SDS011;4065;48.754;9.982;2023-07-20T00:21:13;5.15;;;2.55;;
8044;SDS011;4065;48.754;9.982;2023-07-20T00:24:35;6.55;;;2.65;;
8044;SDS011;4065;48.754;9.982;2023-07-20T00:27:58;3.05;;;2.42;;
8044;SDS011;4065;48.754;9.982;2023-07-20T00:31:20;4.72;;;2.70;;
8044;SDS011;4065;48.754;9.982;2023-07-20T00:34:43;2.72;;;2.35;;
8044;SDS011;4065;48.754;9.982;2023-07-20T00:38:05;3.97;;;2.88;;
8044;SDS011;4065;48.754;9.982;2023-07-20T00:41:27;3.50;;;2.72;;
8044;SDS011;4065;48.754;9.982;2023-07-20T00:44:52;4.00;;;2.50;;
8044;SDS011;4065;48.754;9.982;2023-07-20T00:48:14;7.20;;;3.00;;
8044;SDS011;4065;48.754;9.982;2023-07-20T00:51:37;4.18;;;2.72;;
8044;SDS011;4065;48.754;9.982;2023-07-20T00:54:59;4.32;;;2.75;;
8044;SDS011;4065;48.754;9.982;2023-07-20T00:58:22;4.90;;;3.03;;
8044;SDS011;4065;48.754;9.982;2023-07-20T01:01:44;4.60;;;3.08;;
8044;SDS011;4065;48.754;9.982;2023-07-20T01:05:06;4.90;;;3.00;;
8044;SDS011;4065;48.754;9.982;2023-07-20T01:08:32;5.68;;;3.05;;
8044;SDS011;4065;48.754;9.982;2023-07-20T01:12:02;3.40;;;3.10;;
8044;SDS011;4065;48.754;9.982;2023-07-20T01:15:28;3.88;;;3.20;;
8044;SDS011;4065;48.754;9.982;2023-07-20T01:18:50;3.95;;;2.78;;
8044;SDS011;4065;48.754;9.982;2023-07-20T01:22:15;3.83;;;3.15;;
8044;SDS011;4065;48.754;9.982;2023-07-20T01:25:55;3.63;;;3.08;;
8044;SDS011;4065;48.754;9.982;2023-07-20T01:29:35;4.70;;;2.90;;
8044;SDS011;4065;48.754;9.982;2023-07-20T01:33:06;3.17;;;2.75;;
8044;SDS011;4065;48.754;9.982;2023-07-20T01:36:30;3.30;;;2.95;;
8044;SDS011;4065;48.754;9.982;2023-07-20T01:39:55;6.38;;;2.90;;
8044;SDS011;4065;48.754;9.982;2023-07-20T01:43:17;5.40;;;3.00;;
8044;SDS011;4065;48.754;9.982;2023-07-20T01:46:39;4.35;;;3.38;;
8044;SDS011;4065;48.754;9.982;2023-07-20T01:50:02;3.17;;;2.60;;
8044;SDS011;4065;48.754;9.982;2023-07-20T01:53:25;6.15;;;3.67;;
8044;SDS011;4065;48.754;9.982;2023-07-20T01:56:47;4.78;;;2.78;;
8044;SDS011;4065;48.754;9.982;2023-07-20T02:00:09;4.60;;;2.80;;
8044;SDS011;4065;48.754;9.982;2023-07-20T02:03:32;4.38;;;3.05;;
8044;SDS011;4065;48.754;9.982;2023-07-20T02:06:55;3.70;;;2.95;;
8044;SDS011;4065;48.754;9.982;2023-07-20T02:10:17;5.10;;;3.00;;
8044;SDS011;4065;48.754;9.982;2023-07-20T02:13:39;4.72;;;3.00;;
8044;SDS011;4065;48.754;9.982;2023-07-20T02:17:01;8.13;;;2.90;;
8044;SDS011;4065;48.754;9.982;2023-07-20T02:20:23;7.07;;;3.13;;
8044;SDS011;4065;48.754;9.982;2023-07-20T02:23:46;5.90;;;3.28;;
8044;SDS011;4065;48.754;9.982;2023-07-20T02:27:08;4.93;;;2.85;;
8044;SDS011;4065;48.754;9.982;2023-07-20T02:30:30;6.00;;;3.30;;
8044;SDS011;4065;48.754;9.982;2023-07-20T02:33:52;5.10;;;3.35;;
8044;SDS011;4065;48.754;9.982;2023-07-20T02:37:13;5.43;;;3.30;;
8044;SDS011;4065;48.754;9.982;2023-07-20T02:40:37;5.15;;;3.13;;
8044;SDS011;4065;48.754;9.982;2023-07-20T02:43:59;4.43;;;2.97;;
8044;SDS011;4065;48.754;9.982;2023-07-20T02:47:21;3.63;;;2.80;;
8044;SDS011;4065;48.754;9.982;2023-07-20T02:50:44;5.05;;;3.10;;
8044;SDS011;4065;48.754;9.982;2023-07-20T02:54:05;4.18;;;2.88;;
8044;SDS011;4065;48.754;9.982;2023-07-20T02:57:29;4.40;;;3.10;;
8044;SDS011;4065;48.754;9.982;2023-07-20T03:00:50;4.45;;;3.00;;
8044;SDS011;4065;48.754;9.982;2023-07-20T03:04:12;3.17;;;2.88;;
8044;SDS011;4065;48.754;9.982;2023-07-20T03:07:34;6.95;;;3.17;;
8044;SDS011;4065;48.754;9.982;2023-07-20T03:10:56;5.45;;;3.20;;
8044;SDS011;4065;48.754;9.982;2023-07-20T03:14:19;5.70;;;3.33;;
8044;SDS011;4065;48.754;9.982;2023-07-20T03:17:41;4.88;;;3.38;;
8044;SDS011;4065;48.754;9.982;2023-07-20T03:21:03;5.40;;;3.08;;
8044;SDS011;4065;48.754;9.982;2023-07-20T03:24:25;3.88;;;3.10;;
8044;SDS011;4065;48.754;9.982;2023-07-20T03:27:48;5.55;;;3.35;;
8044;SDS011;4065;48.754;9.982;2023-07-20T03:31:11;3.33;;;3.03;;
8044;SDS011;4065;48.754;9.982;2023-07-20T03:34:35;5.18;;;3.22;;
8044;SDS011;4065;48.754;9.982;2023-07-20T03:37:57;4.13;;;3.00;;
8044;SDS011;4065;48.754;9.982;2023-07-20T03:41:19;3.45;;;3.13;;
8044;SDS011;4065;48.754;9.982;2023-07-20T03:44:42;3.92;;;3.00;;
8044;SDS011;4065;48.754;9.982;2023-07-20T03:48:06;3.92;;;3.13;;
8044;SDS011;4065;48.754;9.982;2023-07-20T03:51:28;7.20;;;3.50;;
8044;SDS011;4065;48.754;9.982;2023-07-20T03:54:50;6.75;;;3.42;;
8044;SDS011;4065;48.754;9.982;2023-07-20T03:58:13;4.75;;;3.30;;
8044;SDS011;4065;48.754;9.982;2023-07-20T04:01:35;11.18;;;4.03;;
8044;SDS011;4065;48.754;9.982;2023-07-20T04:05:00;4.57;;;3.20;;
8044;SDS011;4065;48.754;9.982;2023-07-20T04:08:22;6.60;;;3.25;;
8044;SDS011;4065;48.754;9.982;2023-07-20T04:11:45;6.20;;;3.15;;
8044;SDS011;4065;48.754;9.982;2023-07-20T04:15:08;4.00;;;3.33;;
8044;SDS011;4065;48.754;9.982;2023-07-20T04:18:30;4.18;;;3.22;;
8044;SDS011;4065;48.754;9.982;2023-07-20T04:21:53;9.63;;;3.85;;
8044;SDS011;4065;48.754;9.982;2023-07-20T04:25:16;4.68;;;2.85;;
8044;SDS011;4065;48.754;9.982;2023-07-20T04:28:39;4.75;;;3.25;;
8044;SDS011;4065;48.754;9.982;2023-07-20T04:32:03;4.82;;;3.30;;
8044;SDS011;4065;48.754;9.982;2023-07-20T04:35:44;3.55;;;2.92;;
8044;SDS011;4065;48.754;9.982;2023-07-20T04:39:09;4.35;;;3.22;;
8044;SDS011;4065;48.754;9.982;2023-07-20T04:42:32;5.93;;;3.10;;
8044;SDS011;4065;48.754;9.982;2023-07-20T04:45:54;4.45;;;3.42;;
8044;SDS011;4065;48.754;9.982;2023-07-20T04:49:22;5.07;;;3.28;;
8044;SDS011;4065;48.754;9.982;2023-07-20T04:53:18;5.18;;;3.13;;
8044;SDS011;4065;48.754;9.982;2023-07-20T05:01:40;4.63;;;2.95;;
8044;SDS011;4065;48.754;9.982;2023-07-20T05:05:40;7.30;;;3.45;;
8044;SDS011;4065;48.754;9.982;2023-07-20T05:09:44;4.07;;;3.03;;
8044;SDS011;4065;48.754;9.982;2023-07-20T05:13:53;3.67;;;2.88;;
8044;SDS011;4065;48.754;9.982;2023-07-20T05:17:49;6.05;;;3.25;;
8044;SDS011;4065;48.754;9.982;2023-07-20T05:21:11;4.60;;;3.13;;
8044;SDS011;4065;48.754;9.982;2023-07-20T05:24:35;5.18;;;3.03;;
8044;SDS011;4065;48.754;9.982;2023-07-20T05:27:57;4.30;;;2.80;;
8044;SDS011;4065;48.754;9.982;2023-07-20T05:31:20;4.55;;;3.00;;
8044;SDS011;4065;48.754;9.982;2023-07-20T05:34:42;5.82;;;3.20;;
8044;SDS011;4065;48.754;9.982;2023-07-20T05:38:04;4.68;;;3.10;;
8044;SDS011;4065;48.754;9.982;2023-07-20T05:41:27;5.07;;;3.22;;
8044;SDS011;4065;48.754;9.982;2023-07-20T05:44:49;6.93;;;3.10;;
8044;SDS011;4065;48.754;9.982;2023-07-20T05:48:14;6.90;;;3.47;;
8044;SDS011;4065;48.754;9.982;2023-07-20T05:51:37;3.92;;;2.90;;
8044;SDS011;4065;48.754;9.982;2023-07-20T05:54:59;5.03;;;3.20;;
8044;SDS011;4065;48.754;9.982;2023-07-20T05:58:21;3.88;;;3.10;;
8044;SDS011;4065;48.754;9.982;2023-07-20T06:01:45;5.57;;;3.08;;
8044;SDS011;4065;48.754;9.982;2023-07-20T06:05:10;4.18;;;3.10;;
8044;SDS011;4065;48.754;9.982;2023-07-20T06:08:32;3.92;;;2.65;;
8044;SDS011;4065;48.754;9.982;2023-07-20T06:11:54;4.97;;;3.03;;
8044;SDS011;4065;48.754;9.982;2023-07-20T06:18:56;4.38;;;2.63;;
8044;SDS011;4065;48.754;9.982;2023-07-20T06:22:20;3.08;;;2.60;;
8044;SDS011;4065;48.754;9.982;2023-07-20T06:25:42;3.92;;;2.83;;
8044;SDS011;4065;48.754;9.982;2023-07-20T06:29:03;5.88;;;2.92;;
8044;SDS011;4065;48.754;9.982;2023-07-20T06:32:26;4.35;;;2.47;;
8044;SDS011;4065;48.754;9.982;2023-07-20T06:35:49;3.53;;;2.50;;
8044;SDS011;4065;48.754;9.982;2023-07-20T06:39:25;5.43;;;2.70;;
8044;SDS011;4065;48.754;9.982;2023-07-20T06:42:55;3.67;;;2.67;;
8044;SDS011;4065;48.754;9.982;2023-07-20T06:46:17;3.83;;;2.40;;
8044;SDS011;4065;48.754;9.982;2023-07-20T06:49:39;3.55;;;2.83;;
8044;SDS011;4065;48.754;9.982;2023-07-20T06:53:01;5.78;;;2.95;;
8044;SDS011;4065;48.754;9.982;2023-07-20T06:56:26;5.30;;;2.70;;
8044;SDS011;4065;48.754;9.982;2023-07-20T06:59:48;5.90;;;2.95;;
8044;SDS011;4065;48.754;9.982;2023-07-20T07:03:11;8.38;;;2.85;;
8044;SDS011;4065;48.754;9.982;2023-07-20T07:06:33;5.60;;;2.58;;
8044;SDS011;4065;48.754;9.982;2023-07-20T07:09:57;4.85;;;2.80;;
8044;SDS011;4065;48.754;9.982;2023-07-20T07:13:20;3.40;;;2.40;;
8044;SDS011;4065;48.754;9.982;2023-07-20T07:16:43;4.35;;;2.63;;
8044;SDS011;4065;48.754;9.982;2023-07-20T07:20:05;4.95;;;2.95;;
8044;SDS011;4065;48.754;9.982;2023-07-20T07:23:29;4.80;;;2.55;;
8044;SDS011;4065;48.754;9.982;2023-07-20T07:26:51;6.47;;;2.70;;
8044;SDS011;4065;48.754;9.982;2023-07-20T09:04:38;3.45;;;2.33;;
8044;SDS011;4065;48.754;9.982;2023-07-20T09:08:00;3.33;;;2.63;;
8044;SDS011;4065;48.754;9.982;2023-07-20T09:11:24;5.13;;;2.70;;
8044;SDS011;4065;48.754;9.982;2023-07-20T09:14:46;3.25;;;2.72;;
8044;SDS011;4065;48.754;9.982;2023-07-20T09:18:09;4.70;;;2.90;;
8044;SDS011;4065;48.754;9.982;2023-07-20T09:21:32;3.72;;;2.80;;
8044;SDS011;4065;48.754;9.982;2023-07-20T09:24:54;3.47;;;2.95;;
8044;SDS011;4065;48.754;9.982;2023-07-20T09:28:17;4.65;;;2.83;;
8044;SDS011;4065;48.754;9.982;2023-07-20T09:31:40;4.43;;;2.75;;
8044;SDS011;4065;48.754;9.982;2023-07-20T09:35:02;3.78;;;2.63;;
8044;SDS011;4065;48.754;9.982;2023-07-20T09:40:39;5.05;;;2.88;;
8044;SDS011;4065;48.754;9.982;2023-07-20T09:44:02;4.18;;;2.80;;
8044;SDS011;4065;48.754;9.982;2023-07-20T09:47:24;5.10;;;2.70;;
8044;SDS011;4065;48.754;9.982;2023-07-20T09:50:48;4.82;;;2.42;;
8044;SDS011;4065;48.754;9.982;2023-07-20T09:54:11;3.45;;;2.78;;
8044;SDS011;4065;48.754;9.982;2023-07-20T09:57:36;3.75;;;2.60;;
8044;SDS011;4065;48.754;9.982;2023-07-20T10:00:59;5.00;;;2.63;;
8044;SDS011;4065;48.754;9.982;2023-07-20T10:04:23;3.80;;;2.63;;
8044;SDS011;4065;48.754;9.982;2023-07-20T10:07:47;3.83;;;2.80;;
8044;SDS011;4065;48.754;9.982;2023-07-20T10:11:10;3.75;;;2.53;;
8044;SDS011;4065;48.754;9.982;2023-07-20T10:14:34;3.25;;;2.30;;
8044;SDS011;4065;48.754;9.982;2023-07-20T10:18:02;2.67;;;2.13;;
8044;SDS011;4065;48.754;9.982;2023-07-20T10:21:29;2.92;;;2.60;;
8044;SDS011;4065;48.754;9.982;2023-07-20T10:24:52;3.20;;;2.50;;
8044;SDS011;4065;48.754;9.982;2023-07-20T10:28:14;4.05;;;3.05;;
8044;SDS011;4065;48.754;9.982;2023-07-20T10:31:39;3.95;;;2.60;;
8044;SDS011;4065;48.754;9.982;2023-07-20T10:35:17;3.85;;;2.67;;
8044;SDS011;4065;48.754;9.982;2023-07-20T10:38:57;7.75;;;3.38;;
8044;SDS011;4065;48.754;9.982;2023-07-20T10:42:21;3.30;;;2.75;;
8044;SDS011;4065;48.754;9.982;2023-07-20T10:45:48;5.53;;;3.10;;
8044;SDS011;4065;48.754;9.982;2023-07-20T10:49:12;4.72;;;3.03;;
8044;SDS011;4065;48.754;9.982;2023-07-20T10:52:39;4.63;;;2.65;;
8044;SDS011;4065;48.754;9.982;2023-07-20T10:56:08;3.10;;;2.47;;
8044;SDS011;4065;48.754;9.982;2023-07-20T10:59:37;2.83;;;2.40;;
8044;SDS011;4065;48.754;9.982;2023-07-20T11:03:00;5.57;;;3.17;;
8044;SDS011;4065;48.754;9.982;2023-07-20T11:06:33;3.85;;;2.60;;
8044;SDS011;4065;48.754;9.982;2023-07-20T11:10:00;3.00;;;2.70;;
8044;SDS011;4065;48.754;9.982;2023-07-20T11:13:34;3.75;;;2.50;;
8044;SDS011;4065;48.754;9.982;2023-07-20T11:16:57;3.28;;;2.45;;
8044;SDS011;4065;48.754;9.982;2023-07-20T11:20:33;3.25;;;2.55;;
8044;SDS011;4065;48.754;9.982;2023-07-20T11:24:02;3.80;;;2.42;;
8044;SDS011;4065;48.754;9.982;2023-07-20T11:27:25;3.53;;;2.83;;
8044;SDS011;4065;48.754;9.982;2023-07-20T11:30:52;3.35;;;2.58;;
8044;SDS011;4065;48.754;9.982;2023-07-20T11:34:19;5.38;;;2.70;;
8044;SDS011;4065;48.754;9.982;2023-07-20T11:37:50;4.90;;;3.08;;
8044;SDS011;4065;48.754;9.982;2023-07-20T11:41:46;6.13;;;2.83;;
8044;SDS011;4065;48.754;9.982;2023-07-20T11:45:10;5.93;;;3.00;;
8044;SDS011;4065;48.754;9.982;2023-07-20T11:48:32;3.10;;;2.30;;
8044;SDS011;4065;48.754;9.982;2023-07-20T11:51:56;4.70;;;2.47;;
8044;SDS011;4065;48.754;9.982;2023-07-20T11:55:18;3.95;;;2.50;;
8044;SDS011;4065;48.754;9.982;2023-07-20T11:58:45;4.32;;;2.55;;
8044;SDS011;4065;48.754;9.982;2023-07-20T12:02:08;2.97;;;2.15;;
8044;SDS011;4065;48.754;9.982;2023-07-20T12:05:32;4.30;;;2.35;;
8044;SDS011;4065;48.754;9.982;2023-07-20T12:08:55;5.93;;;2.45;;
8044;SDS011;4065;48.754;9.982;2023-07-20T12:12:20;3.72;;;2.70;;
8044;SDS011;4065;48.754;9.982;2023-07-20T12:24:22;3.22;;;2.10;;
8044;SDS011;4065;48.754;9.982;2023-07-20T12:36:11;4.10;;;1.90;;
8044;SDS011;4065;48.754;9.982;2023-07-20T12:39:34;2.92;;;2.38;;
8044;SDS011;4065;48.754;9.982;2023-07-20T12:42:56;3.22;;;2.13;;
8044;SDS011;4065;48.754;9.982;2023-07-20T12:46:19;3.88;;;2.17;;
8044;SDS011;4065;48.754;9.982;2023-07-20T12:49:45;2.65;;;2.08;;
8044;SDS011;4065;48.754;9.982;2023-07-20T12:53:09;4.50;;;2.40;;
8044;SDS011;4065;48.754;9.982;2023-07-20T12:56:31;5.03;;;2.55;;
8044;SDS011;4065;48.754;9.982;2023-07-20T12:59:54;3.55;;;2.10;;
8044;SDS011;4065;48.754;9.982;2023-07-20T13:03:18;5.55;;;2.33;;
8044;SDS011;4065;48.754;9.982;2023-07-20T13:06:41;2.75;;;2.10;;
8044;SDS011;4065;48.754;9.982;2023-07-20T13:10:06;2.25;;;1.98;;
8044;SDS011;4065;48.754;9.982;2023-07-20T13:13:29;2.90;;;2.10;;
8044;SDS011;4065;48.754;9.982;2023-07-20T13:16:53;3.58;;;1.90;;
8044;SDS011;4065;48.754;9.982;2023-07-20T13:20:15;2.20;;;2.00;;
8044;SDS011;4065;48.754;9.982;2023-07-20T13:23:40;3.50;;;2.10;;
8044;SDS011;4065;48.754;9.982;2023-07-20T13:27:05;2.38;;;2.15;;
8044;SDS011;4065;48.754;9.982;2023-07-20T13:30:27;2.97;;;2.08;;
8044;SDS011;4065;48.754;9.982;2023-07-20T13:33:50;4.32;;;2.47;;
8044;SDS011;4065;48.754;9.982;2023-07-20T13:37:14;4.18;;;2.20;;
8044;SDS011;4065;48.754;9.982;2023-07-20T13:40:38;1.92;;;1.73;;
8044;SDS011;4065;48.754;9.982;2023-07-20T13:44:02;3.63;;;2.13;;
8044;SDS011;4065;48.754;9.982;2023-07-20T13:47:25;5.07;;;2.00;;
8044;SDS011;4065;48.754;9.982;2023-07-20T13:50:49;3.38;;;1.83;;
8044;SDS011;4065;48.754;9.982;2023-07-20T13:54:11;2.45;;;2.00;;
8044;SDS011;4065;48.754;9.982;2023-07-20T13:57:33;2.45;;;1.77;;
8044;SDS011;4065;48.754;9.982;2023-07-20T14:00:58;1.92;;;1.73;;
8044;SDS011;4065;48.754;9.982;2023-07-20T14:04:20;2.42;;;2.10;;
8044;SDS011;4065;48.754;9.982;2023-07-20T14:07:42;4.75;;;2.20;;
8044;SDS011;4065;48.754;9.982;2023-07-20T14:11:05;3.08;;;1.80;;
8044;SDS011;4065;48.754;9.982;2023-07-20T14:14:26;2.20;;;2.00;;
8044;SDS011;4065;48.754;9.982;2023-07-20T14:17:50;2.10;;;1.90;;
8044;SDS011;4065;48.754;9.982;2023-07-20T14:21:13;3.55;;;2.10;;
8044;SDS011;4065;48.754;9.982;2023-07-20T14:24:36;2.75;;;2.05;;
8044;SDS011;4065;48.754;9.982;2023-07-20T14:27:58;7.95;;;2.05;;
8044;SDS011;4065;48.754;9.982;2023-07-20T14:31:20;1.98;;;1.80;;
8044;SDS011;4065;48.754;9.982;2023-07-20T14:34:44;2.90;;;2.00;;
8044;SDS011;4065;48.754;9.982;2023-07-20T14:38:06;8.00;;;2.17;;
8044;SDS011;4065;48.754;9.982;2023-07-20T14:41:28;2.85;;;1.73;;
8044;SDS011;4065;48.754;9.982;2023-07-20T14:44:51;2.13;;;1.80;;
8044;SDS011;4065;48.754;9.982;2023-07-20T14:48:13;3.50;;;1.70;;
8044;SDS011;4065;48.754;9.982;2023-07-20T14:51:36;2.40;;;1.63;;
8044;SDS011;4065;48.754;9.982;2023-07-20T14:55:04;2.88;;;1.80;;
8044;SDS011;4065;48.754;9.982;2023-07-20T14:58:27;3.85;;;2.10;;
8044;SDS011;4065;48.754;9.982;2023-07-20T15:01:49;3.60;;;1.80;;
8044;SDS011;4065;48.754;9.982;2023-07-20T15:05:11;2.92;;;1.80;;
8044;SDS011;4065;48.754;9.982;2023-07-20T15:08:35;4.38;;;2.33;;
8044;SDS011;4065;48.754;9.982;2023-07-20T15:11:58;2.75;;;1.83;;
8044;SDS011;4065;48.754;9.982;2023-07-20T15:15:21;3.13;;;2.00;;
8044;SDS011;4065;48.754;9.982;2023-07-20T15:18:44;2.80;;;2.13;;
8044;SDS011;4065;48.754;9.982;2023-07-20T15:22:06;3.25;;;2.10;;
8044;SDS011;4065;48.754;9.982;2023-07-20T15:25:31;2.25;;;1.88;;
8044;SDS011;4065;48.754;9.982;2023-07-20T15:28:53;3.53;;;1.90;;
8044;SDS011;4065;48.754;9.982;2023-07-20T15:32:15;2.00;;;1.80;;
8044;SDS011;4065;48.754;9.982;2023-07-20T15:35:38;2.00;;;1.80;;
8044;SDS011;4065;48.754;9.982;2023-07-20T15:39:01;2.75;;;1.90;;
8044;SDS011;4065;48.754;9.982;2023-07-20T15:42:25;3.20;;;1.95;;
8044;SDS011;4065;48.754;9.982;2023-07-20T15:45:48;2.20;;;1.73;;
8044;SDS011;4065;48.754;9.982;2023-07-20T15:49:12;2.15;;;1.73;;
8044;SDS011;4065;48.754;9.982;2023-07-20T15:52:35;2.22;;;1.92;;
8044;SDS011;4065;48.754;9.982;2023-07-20T15:55:59;2.95;;;1.98;;
8044;SDS011;4065;48.754;9.982;2023-07-20T15:59:23;2.42;;;2.22;;
8044;SDS011;4065;48.754;9.982;2023-07-20T16:02:46;2.72;;;1.95;;
8044;SDS011;4065;48.754;9.982;2023-07-20T16:06:09;2.47;;;1.98;;
8044;SDS011;4065;48.754;9.982;2023-07-20T16:09:32;2.92;;;2.22;;
8044;SDS011;4065;48.754;9.982;2023-07-20T16:12:57;2.17;;;1.98;;
8044;SDS011;4065;48.754;9.982;2023-07-20T16:16:22;3.38;;;2.30;;
8044;SDS011;4065;48.754;9.982;2023-07-20T16:19:45;4.10;;;2.30;;
8044;SDS011;4065;48.754;9.982;2023-07-20T16:23:07;3.05;;;2.03;;
8044;SDS011;4065;48.754;9.982;2023-07-20T16:26:29;2.55;;;2.00;;
8044;SDS011;4065;48.754;9.982;2023-07-20T16:29:51;2.10;;;1.90;;
8044;SDS011;4065;48.754;9.982;2023-07-20T16:33:16;3.25;;;2.40;;
8044;SDS011;4065;48.754;9.982;2023-07-20T16:36:38;3.78;;;2.10;;
8044;SDS011;4065;48.754;9.982;2023-07-20T16:40:03;3.97;;;2.25;;
8044;SDS011;4065;48.754;9.982;2023-07-20T16:43:29;2.75;;;2.08;;
8044;SDS011;4065;48.754;9.982;2023-07-20T16:46:54;2.92;;;2.10;;
8044;SDS011;4065;48.754;9.982;2023-07-20T16:50:18;2.88;;;1.92;;
8044;SDS011;4065;48.754;9.982;2023-07-20T16:53:41;2.92;;;2.13;;
8044;SDS011;4065;48.754;9.982;2023-07-20T16:57:04;3.08;;;2.17;;
8044;SDS011;4065;48.754;9.982;2023-07-20T17:00:27;4.68;;;2.28;;
8044;SDS011;4065;48.754;9.982;2023-07-20T17:03:49;2.50;;;2.00;;
8044;SDS011;4065;48.754;9.982;2023-07-20T17:07:13;3.35;;;2.40;;
8044;SDS011;4065;48.754;9.982;2023-07-20T17:10:36;3.13;;;2.30;;
8044;SDS011;4065;48.754;9.982;2023-07-20T17:13:58;3.45;;;2.45;;
8044;SDS011;4065;48.754;9.982;2023-07-20T17:17:23;2.65;;;2.20;;
8044;SDS011;4065;48.754;9.982;2023-07-20T17:20:46;3.22;;;2.20;;
8044;SDS011;4065;48.754;9.982;2023-07-20T17:24:28;4.97;;;2.55;;
8044;SDS011;4065;48.754;9.982;2023-07-20T17:28:09;3.50;;;1.80;;
8044;SDS011;4065;48.754;9.982;2023-07-20T17:31:50;3.47;;;2.10;;
8044;SDS011;4065;48.754;9.982;2023-07-20T17:36:15;3.00;;;2.17;;
8044;SDS011;4065;48.754;9.982;2023-07-20T17:39:39;3.63;;;2.10;;
8044;SDS011;4065;48.754;9.982;2023-07-20T17:43:03;2.03;;;1.83;;
8044;SDS011;4065;48.754;9.982;2023-07-20T17:46:26;2.92;;;1.88;;
8044;SDS011;4065;48.754;9.982;2023-07-20T17:49:48;4.47;;;2.45;;
8044;SDS011;4065;48.754;9.982;2023-07-20T17:53:11;3.95;;;2.20;;
8044;SDS011;4065;48.754;9.982;2023-07-20T17:56:36;3.33;;;2.10;;
8044;SDS011;4065;48.754;9.982;2023-07-20T18:00:00;4.43;;;2.13;;
8044;SDS011;4065;48.754;9.982;2023-07-20T18:03:24;2.33;;;1.95;;
8044;SDS011;4065;48.754;9.982;2023-07-20T18:06:49;2.75;;;1.95;;
8044;SDS011;4065;48.754;9.982;2023-07-20T18:10:12;3.05;;;2.03;;
8044;SDS011;4065;48.754;9.982;2023-07-20T18:13:38;2.50;;;1.88;;
8044;SDS011;4065;48.754;9.982;2023-07-20T18:17:01;3.45;;;2.05;;
8044;SDS011;4065;48.754;9.982;2023-07-20T18:20:24;2.60;;;2.30;;
8044;SDS011;4065;48.754;9.982;2023-07-20T18:23:47;3.15;;;2.22;;
8044;SDS011;4065;48.754;9.982;2023-07-20T18:27:12;4.35;;;2.33;;
8044;SDS011;4065;48.754;9.982;2023-07-20T18:30:35;2.30;;;2.10;;
8044;SDS011;4065;48.754;9.982;2023-07-20T18:33:58;3.80;;;2.13;;
8044;SDS011;4065;48.754;9.982;2023-07-20T18:37:21;3.13;;;2.00;;
8044;SDS011;4065;48.754;9.982;2023-07-20T18:40:45;4.15;;;2.20;;
8044;SDS011;4065;48.754;9.982;2023-07-20T18:44:07;2.42;;;2.22;;
8044;SDS011;4065;48.754;9.982;2023-07-20T18:47:31;2.78;;;2.20;;
8044;SDS011;4065;48.754;9.982;2023-07-20T18:50:54;2.50;;;2.08;;
8044;SDS011;4065;48.754;9.982;2023-07-20T18:54:17;2.85;;;2.38;;
8044;SDS011;4065;48.754;9.982;2023-07-20T18:57:39;2.92;;;2.47;;
8044;SDS011;4065;48.754;9.982;2023-07-20T19:01:03;2.95;;;2.00;;
8044;SDS011;4065;48.754;9.982;2023-07-20T19:04:27;3.60;;;2.50;;
8044;SDS011;4065;48.754;9.982;2023-07-20T19:07:50;4.70;;;2.60;;
8044;SDS011;4065;48.754;9.982;2023-07-20T19:11:12;4.35;;;2.65;;
8044;SDS011;4065;48.754;9.982;2023-07-20T19:14:35;4.32;;;2.55;;
8044;SDS011;4065;48.754;9.982;2023-07-20T19:17:57;2.40;;;2.10;;
8044;SDS011;4065;48.754;9.982;2023-07-20T19:21:21;3.95;;;2.40;;
8044;SDS011;4065;48.754;9.982;2023-07-20T19:24:43;3.33;;;2.08;;
8044;SDS011;4065;48.754;9.982;2023-07-20T19:28:06;3.17;;;2.58;;
8044;SDS011;4065;48.754;9.982;2023-07-20T19:31:30;2.47;;;2.20;;
8044;SDS011;4065;48.754;9.982;2023-07-20T19:34:52;3.13;;;2.53;;
8044;SDS011;4065;48.754;9.982;2023-07-20T19:38:17;3.10;;;2.50;;
8044;SDS011;4065;48.754;9.982;2023-07-20T19:41:44;3.38;;;2.60;;
8044;SDS011;4065;48.754;9.982;2023-07-20T19:45:06;6.20;;;2.70;;
8044;SDS011;4065;48.754;9.982;2023-07-20T19:48:29;4.82;;;2.30;;
8044;SDS011;4065;48.754;9.982;2023-07-20T19:51:51;4.40;;;2.13;;
8044;SDS011;4065;48.754;9.982;2023-07-20T19:55:15;2.75;;;2.30;;
8044;SDS011;4065;48.754;9.982;2023-07-20T19:58:37;2.63;;;2.20;;
8044;SDS011;4065;48.754;9.982;2023-07-20T20:01:59;3.00;;;2.40;;
8044;SDS011;4065;48.754;9.982;2023-07-20T20:05:22;3.92;;;2.70;;
8044;SDS011;4065;48.754;9.982;2023-07-20T20:08:45;3.33;;;2.50;;
8044;SDS011;4065;48.754;9.982;2023-07-20T20:12:10;5.70;;;2.90;;
8044;SDS011;4065;48.754;9.982;2023-07-20T20:15:52;4.05;;;2.30;;
8044;SDS011;4065;48.754;9.982;2023-07-20T20:19:16;2.40;;;2.20;;
8044;SDS011;4065;48.754;9.982;2023-07-20T20:23:06;4.00;;;2.70;;
8044;SDS011;4065;48.754;9.982;2023-07-20T20:26:37;2.80;;;2.38;;
8044;SDS011;4065;48.754;9.982;2023-07-20T20:30:39;2.85;;;2.33;;
8044;SDS011;4065;48.754;9.982;2023-07-20T20:34:20;2.65;;;2.42;;
8044;SDS011;4065;48.754;9.982;2023-07-20T20:38:15;3.78;;;2.50;;
8044;SDS011;4065;48.754;9.982;2023-07-20T20:41:40;2.90;;;2.42;;
8044;SDS011;4065;48.754;9.982;2023-07-20T20:45:14;3.17;;;2.50;;
8044;SDS011;4065;48.754;9.982;2023-07-20T20:48:38;3.35;;;2.60;;
8044;SDS011;4065;48.754;9.982;2023-07-20T20:52:05;3.28;;;2.72;;
8044;SDS011;4065;48.754;9.982;2023-07-20T20:55:49;3.05;;;2.45;;
8044;SDS011;4065;48.754;9.982;2023-07-20T20:59:41;3.88;;;2.70;;
8044;SDS011;4065;48.754;9.982;2023-07-20T21:03:09;3.17;;;2.70;;
8044;SDS011;4065;48.754;9.982;2023-07-20T21:06:33;3.35;;;2.55;;
8044;SDS011;4065;48.754;9.982;2023-07-20T21:10:02;2.83;;;2.30;;
8044;SDS011;4065;48.754;9.982;2023-07-20T21:13:32;4.72;;;2.78;;
8044;SDS011;4065;48.754;9.982;2023-07-20T21:16:58;4.05;;;2.65;;
8044;SDS011;4065;48.754;9.982;2023-07-20T21:20:24;3.40;;;2.60;;
8044;SDS011;4065;48.754;9.982;2023-07-20T21:24:02;5.55;;;2.55;;
8044;SDS011;4065;48.754;9.982;2023-07-20T21:27:26;2.95;;;2.50;;
8044;SDS011;4065;48.754;9.982;2023-07-20T21:34:34;3.03;;;2.72;;
8044;SDS011;4065;48.754;9.982;2023-07-20T21:37:59;3.55;;;2.72;;
8044;SDS011;4065;48.754;9.982;2023-07-20T21:41:28;3.75;;;2.88;;
8044;SDS011;4065;48.754;9.982;2023-07-20T21:44:55;2.67;;;2.40;;
8044;SDS011;4065;48.754;9.982;2023-07-20T21:48:37;3.22;;;2.92;;
8044;SDS011;4065;48.754;9.982;2023-07-20T21:52:24;3.42;;;2.40;;
8044;SDS011;4065;48.754;9.982;2023-07-20T21:55:46;4.22;;;2.88;;
8044;SDS011;4065;48.754;9.982;2023-07-20T21:59:10;3.70;;;2.63;;
8044;SDS011;4065;48.754;9.982;2023-07-20T22:02:32;4.05;;;2.95;;
8044;SDS011;4065;48.754;9.982;2023-07-20T22:05:54;3.63;;;3.17;;
8044;SDS011;4065;48.754;9.982;2023-07-20T22:09:17;3.53;;;3.20;;
8044;SDS011;4065;48.754;9.982;2023-07-20T22:12:39;4.82;;;3.15;;
8044;SDS011;4065;48.754;9.982;2023-07-20T22:16:03;5.35;;;2.83;;
8044;SDS011;4065;48.754;9.982;2023-07-20T22:19:25;4.93;;;3.00;;
8044;SDS011;4065;48.754;9.982;2023-07-20T22:22:48;3.78;;;3.10;;
8044;SDS011;4065;48.754;9.982;2023-07-20T22:26:10;4.90;;;2.88;;
8044;SDS011;4065;48.754;9.982;2023-07-20T22:29:32;6.10;;;3.00;;
8044;SDS011;4065;48.754;9.982;2023-07-20T22:32:56;4.43;;;2.60;;
8044;SDS011;4065;48.754;9.982;2023-07-20T22:36:20;3.45;;;3.13;;
8044;SDS011;4065;48.754;9.982;2023-07-20T22:40:10;3.38;;;2.72;;
8044;SDS011;4065;48.754;9.982;2023-07-20T22:43:32;3.10;;;2.80;;
8044;SDS011;4065;48.754;9.982;2023-07-20T22:46:54;3.45;;;2.60;;
8044;SDS011;4065;48.754;9.982;2023-07-20T22:50:19;3.67;;;2.50;;
8044;SDS011;4065;48.754;9.982;2023-07-20T22:53:41;4.47;;;3.20;;
8044;SDS011;4065;48.754;9.982;2023-07-20T22:57:03;5.65;;;2.90;;
8044;SDS011;4065;48.754;9.982;2023-07-20T23:00:26;2.90;;;2.60;;
8044;SDS011;4065;48.754;9.982;2023-07-20T23:03:51;3.50;;;2.90;;
8044;SDS011;4065;48.754;9.982;2023-07-20T23:07:15;4.20;;;2.50;;
8044;SDS011;4065;48.754;9.982;2023-07-20T23:10:37;3.42;;;2.80;;
8044;SDS011;4065;48.754;9.982;2023-07-20T23:13:59;3.40;;;3.10;;
8044;SDS011;4065;48.754;9.982;2023-07-20T23:17:21;4.10;;;2.97;;
8044;SDS011;4065;48.754;9.982;2023-07-20T23:20:43;3.72;;;2.92;;